首页
METAR-TAF:

METAR-TAF

机场 :

巴西利亚-儒塞利诺·库比契克总统国际机场

巴西利亚, 巴西利亚联邦行政区, 巴西

纬度: 15-52S, 经度: 047-56W, 海拔: 1061米

当前天气观测

该预报发布于59分钟前的01:00 UTC
风速7节,风向
温度 19°C
湿度 94%
气压 1018 hPa
能见度10公里或以上
多云层高于600英尺
阴天层高于10000英尺
小雨

METAR: SBBR 220100Z 09007KT 9999 -RA BKN006 OVC100 19/18 Q1018

时间: 23:59 (01:59 UTC)

预报

该预报发布于3小时和59分钟前的22:00 UTC
预报有效从22日的 00点(UTC)到 22日的 24点(UTC)
风速4节,风向东转东南
能见度10公里或以上
多云层高于800英尺
几率 40%
从 22日的 00点(UTC)到 22日的 04点(UTC)
能見度: 7000
多云层高于500英尺
少量云层高于4000英尺, 积雨云.
雷暴, 雨
成为
从 22日的 03点(UTC)到 22日的 04点(UTC)
散云层高于1000英尺
成为
从 22日的 07点(UTC)到 22日的 08点(UTC)
风速7节,风向东转东北
多云层高于700英尺
成为
从 22日的 13点(UTC)到 22日的 15点(UTC)
多云层高于2000英尺
成为
从 22日的 16点(UTC)到 22日的 17点(UTC)
风速6节,风向东转东南
散云层高于3000英尺
少量云层高于4000英尺, 塔状积云.
短暂存在
从 22日的 17点(UTC)到 22日的 23点(UTC)
能見度: 8000
多云层高于2500英尺
少量云层高于4000英尺, 积雨云.
雷暴, 雨

TAF: SBBR 212200Z 2200/2224 12004KT 9999 BKN008 TN18/2208Z TX25/2218Z PROB40 2200/2204 7000 TSRA BKN005 FEW040CB BECMG 2203/2204 SCT010 BECMG 2207/2208 07007KT BKN007 BECMG 2213/2215 BKN020 BECMG 2216/2217 12006KT SCT030 FEW040TCU TEMPO 2217/2223 8000 TSRA BKN025 FEW040CB RMK PEJ

超过4000个机场的气象观测和天气预报(METAR&TAF报告)。

可查询的气象台以黄色和红色小点在地图上表示。

将鼠标移到小点上方,可查看气象台名称。

然后点击查看天气观测和预报。

如需切换地图:点击带黑十字的绿色按钮放大地图;点击带横线的绿色按钮缩小地图;或者点击绿色箭头查看邻近地区的地图。


METAR-TAF: